createdAt,value
2022-08-07T00:01:44.272Z,23.10
2022-08-07T00:04:24.613Z,23.14
2022-08-07T00:07:05.143Z,23.32
2022-08-07T00:10:18.759Z,23.09
2022-08-07T00:12:21.740Z,23.15
2022-08-07T00:14:54.540Z,23.27
2022-08-07T00:17:04.967Z,23.31
2022-08-07T00:20:00.963Z,23.55
2022-08-07T00:22:35.243Z,23.64
2022-08-07T00:25:26.319Z,23.83
2022-08-07T00:28:08.831Z,24.14
2022-08-07T00:30:54.103Z,24.06
2022-08-07T00:33:12.917Z,24.11
2022-08-07T00:35:56.283Z,23.99
2022-08-07T00:38:31.112Z,23.89
2022-08-07T00:40:51.542Z,24.26
2022-08-07T00:43:10.034Z,24.31
2022-08-07T00:45:41.386Z,24.49
2022-08-07T00:48:32.678Z,24.52
2022-08-07T00:51:56.432Z,24.62
2022-08-07T00:54:13.506Z,24.60
2022-08-07T00:56:57.535Z,24.86
2022-08-07T00:59:42.842Z,24.64
2022-08-07T01:02:51.077Z,24.64
2022-08-07T01:05:26.806Z,24.85
2022-08-07T01:07:58.249Z,24.93
2022-08-07T01:10:28.229Z,24.86
2022-08-07T01:13:09.639Z,24.91
2022-08-07T01:16:06.098Z,25.23
2022-08-07T01:18:33.576Z,25.10
2022-08-07T01:20:59.462Z,25.39
2022-08-07T01:23:38.027Z,25.45
2022-08-07T01:26:47.917Z,25.36
2022-08-07T01:29:16.830Z,25.23
2022-08-07T01:31:42.811Z,25.16
2022-08-07T01:34:04.783Z,25.25
2022-08-07T01:36:36.418Z,25.25
2022-08-07T01:39:41.116Z,25.31
2022-08-07T01:42:57.582Z,25.71
2022-08-07T01:45:46.692Z,25.57
2022-08-07T01:48:33.681Z,25.74
2022-08-07T01:50:50.778Z,25.85
2022-08-07T01:53:10.968Z,25.83
2022-08-07T01:56:07.466Z,25.97
2022-08-07T01:59:05.387Z,26.01
2022-08-07T02:02:02.779Z,26.31
2022-08-07T02:04:56.693Z,26.24
2022-08-07T02:07:11.785Z,26.18
2022-08-07T02:09:58.693Z,26.08
2022-08-07T02:12:18.438Z,26.18
2022-08-07T02:15:05.931Z,26.29
2022-08-07T02:17:49.252Z,26.40
2022-08-07T02:20:09.580Z,26.48
2022-08-07T02:22:41.461Z,26.36
2022-08-07T02:25:22.044Z,26.31
2022-08-07T02:28:04.325Z,26.39
2022-08-07T02:31:24.684Z,26.44
2022-08-07T02:34:02.856Z,26.63
2022-08-07T02:36:56.652Z,26.81
2022-08-07T02:40:31.093Z,26.74
2022-08-07T02:43:10.812Z,26.85
2022-08-07T02:46:15.127Z,26.98
2022-08-07T02:48:47.071Z,26.96
2022-08-07T02:51:42.019Z,27.23
2022-08-07T02:54:25.163Z,27.31
2022-08-07T02:57:10.617Z,27.12
2022-08-07T03:00:10.393Z,27.52
2022-08-07T03:03:06.042Z,27.51
2022-08-07T03:05:38.150Z,27.68
2022-08-07T03:08:07.502Z,27.84
2022-08-07T03:10:47.552Z,27.90
2022-08-07T03:13:39.073Z,27.80
2022-08-07T03:16:00.990Z,27.95
2022-08-07T03:18:34.881Z,28.05
2022-08-07T03:21:33.017Z,28.00
2022-08-07T03:24:28.074Z,28.29
2022-08-07T03:26:58.151Z,28.30
2022-08-07T03:29:21.069Z,28.27
2022-08-07T03:31:56.290Z,28.48
2022-08-07T03:34:33.668Z,28.51
2022-08-07T03:37:27.636Z,28.61
2022-08-07T03:40:14.846Z,28.72
2022-08-07T03:42:41.839Z,28.93
2022-08-07T03:45:30.679Z,29.00
2022-08-07T03:48:02.237Z,29.10
2022-08-07T03:50:57.798Z,29.12
2022-08-07T03:54:33.300Z,29.08
2022-08-07T03:57:03.511Z,29.21
2022-08-07T03:59:46.701Z,29.84
2022-08-07T04:03:11.038Z,29.87
2022-08-07T04:06:04.144Z,30.00
2022-08-07T04:08:37.412Z,30.15
2022-08-07T04:12:27.715Z,30.37
2022-08-07T04:14:38.085Z,30.43
2022-08-07T04:17:04.731Z,30.69
2022-08-07T04:20:08.389Z,30.99
2022-08-07T04:23:19.370Z,31.03
2022-08-07T04:26:08.563Z,31.12
2022-08-07T04:29:12.371Z,31.04
2022-08-07T04:31:39.079Z,31.49
2022-08-07T04:34:24.054Z,31.49
2022-08-07T04:36:49.462Z,31.76
2022-08-07T04:39:08.700Z,31.82
2022-08-07T04:41:57.910Z,31.85
2022-08-07T04:44:21.329Z,31.97
2022-08-07T04:47:05.049Z,32.19
2022-08-07T04:50:40.648Z,32.44
2022-08-07T04:54:01.638Z,32.86
2022-08-07T04:58:15.729Z,32.99
2022-08-07T05:00:14.400Z,33.38
2022-08-07T05:03:59.799Z,33.76
2022-08-07T05:07:19.846Z,34.05
2022-08-07T05:09:45.414Z,34.31
2022-08-07T05:12:46.433Z,34.57
2022-08-07T05:15:30.000Z,34.84
2022-08-07T05:17:52.203Z,34.96
2022-08-07T05:20:57.567Z,35.17
2022-08-07T05:23:46.808Z,35.31
2022-08-07T05:26:13.471Z,35.55
2022-08-07T05:29:04.291Z,35.67
2022-08-07T05:31:34.763Z,35.77
2022-08-07T05:34:04.488Z,36.02
2022-08-07T05:36:35.654Z,36.11
2022-08-07T05:39:01.265Z,36.29
2022-08-07T05:42:00.393Z,36.48
2022-08-07T05:44:12.590Z,36.62
2022-08-07T05:46:26.481Z,36.73
2022-08-07T05:48:58.266Z,36.64
2022-08-07T05:51:16.733Z,36.80
2022-08-07T05:54:13.024Z,37.05
2022-08-07T05:56:07.330Z,36.96
2022-08-07T05:58:36.208Z,36.94
2022-08-07T06:01:10.954Z,37.04
2022-08-07T06:03:53.265Z,37.04
2022-08-07T06:06:56.687Z,37.03
2022-08-07T06:10:04.783Z,37.27
2022-08-07T06:12:32.964Z,37.38
2022-08-07T06:14:49.627Z,37.34
2022-08-07T06:17:15.982Z,37.54
2022-08-07T06:20:04.293Z,37.66
2022-08-07T06:22:50.543Z,37.80
2022-08-07T06:26:14.141Z,37.90
2022-08-07T06:28:37.466Z,38.22
2022-08-07T06:31:47.073Z,38.10
2022-08-07T06:34:07.930Z,38.34
2022-08-07T06:36:56.781Z,38.28
2022-08-07T06:40:13.502Z,38.48
2022-08-07T06:43:03.546Z,38.68
2022-08-07T06:45:44.271Z,38.95
2022-08-07T06:48:26.972Z,39.08
2022-08-07T06:50:47.945Z,39.12
2022-08-07T06:55:28.411Z,39.20
2022-08-07T06:56:03.018Z,39.36
2022-08-07T06:58:32.097Z,39.64
2022-08-07T07:01:20.836Z,39.63
2022-08-07T07:03:49.340Z,39.79
2022-08-07T07:06:39.423Z,39.82
2022-08-07T07:10:13.479Z,40.10
2022-08-07T07:13:55.507Z,40.27
2022-08-07T07:16:01.761Z,40.32
2022-08-07T07:18:47.736Z,40.52
2022-08-07T07:20:57.177Z,40.64
2022-08-07T07:24:08.258Z,40.81
2022-08-07T07:26:35.138Z,40.98
2022-08-07T07:29:23.486Z,41.26
2022-08-07T07:31:52.739Z,41.48
2022-08-07T07:34:32.177Z,41.73
2022-08-07T07:38:02.935Z,41.97
2022-08-07T07:41:02.448Z,42.26
2022-08-07T07:44:25.700Z,42.38
2022-08-07T07:46:55.665Z,42.63
2022-08-07T07:50:34.008Z,42.84
2022-08-07T07:52:58.309Z,42.97
2022-08-07T07:56:00.800Z,43.31
2022-08-07T07:59:11.062Z,43.51
2022-08-07T08:02:33.919Z,43.72
2022-08-07T08:05:00.842Z,44.11
2022-08-07T08:08:01.919Z,44.16
2022-08-07T08:11:02.498Z,44.41
2022-08-07T08:13:52.924Z,44.56
2022-08-07T08:17:56.305Z,44.58
2022-08-07T08:20:31.832Z,44.98
2022-08-07T08:23:57.900Z,45.22
2022-08-07T08:27:10.508Z,45.25
2022-08-07T08:30:22.398Z,45.71
2022-08-07T08:33:49.829Z,45.72
2022-08-07T08:36:30.118Z,46.02
2022-08-07T08:39:55.179Z,46.33
2022-08-07T08:43:42.847Z,46.54
2022-08-07T08:46:56.611Z,46.72
2022-08-07T08:50:12.472Z,46.90
2022-08-07T08:53:29.621Z,47.06
2022-08-07T08:57:02.440Z,47.22
2022-08-07T09:00:28.722Z,47.53
2022-08-07T09:03:48.004Z,47.73
2022-08-07T09:07:03.410Z,47.65
2022-08-07T09:10:18.153Z,48.00
2022-08-07T09:13:37.514Z,48.19
2022-08-07T09:16:47.525Z,48.53
2022-08-07T09:19:55.165Z,48.67
2022-08-07T09:24:35.069Z,48.79
2022-08-07T09:26:51.166Z,48.96
2022-08-07T09:30:27.930Z,49.10
2022-08-07T09:33:57.013Z,49.34
2022-08-07T09:37:13.383Z,49.62
2022-08-07T09:41:03.547Z,49.86
2022-08-07T09:44:58.675Z,50.01
2022-08-07T09:48:19.113Z,50.11
2022-08-07T09:52:16.021Z,50.37
2022-08-07T09:55:29.564Z,50.81
2022-08-07T09:58:56.520Z,51.34
2022-08-07T10:02:32.975Z,51.62
2022-08-07T10:05:59.429Z,51.64
2022-08-07T10:09:23.819Z,51.58
2022-08-07T10:13:29.683Z,51.58
2022-08-07T10:17:16.874Z,51.64
2022-08-07T10:21:19.785Z,51.79
2022-08-07T10:25:07.631Z,51.93
2022-08-07T10:28:43.400Z,52.08
2022-08-07T10:31:53.235Z,52.15
2022-08-07T10:34:37.447Z,52.31
2022-08-07T10:38:21.364Z,52.43
2022-08-07T10:42:20.818Z,52.53
2022-08-07T10:45:44.784Z,52.66
2022-08-07T10:49:13.856Z,52.79
2022-08-07T10:52:13.200Z,52.92
2022-08-07T10:55:38.621Z,53.10
2022-08-07T10:58:47.439Z,53.20
2022-08-07T11:02:05.045Z,53.44
2022-08-07T11:05:51.209Z,53.62
2022-08-07T11:09:11.223Z,53.78
2022-08-07T11:13:01.558Z,53.96
2022-08-07T11:16:07.409Z,53.91
2022-08-07T11:19:43.946Z,54.14
2022-08-07T11:23:20.743Z,54.46
2022-08-07T11:27:01.215Z,54.58
2022-08-07T11:30:17.929Z,54.66
2022-08-07T11:33:14.040Z,54.76
2022-08-07T11:36:25.438Z,54.92
2022-08-07T11:40:01.248Z,55.01
2022-08-07T11:43:29.533Z,55.13
2022-08-07T11:47:30.579Z,55.27
2022-08-07T11:51:03.917Z,55.34
2022-08-07T11:54:32.846Z,55.67
2022-08-07T11:58:13.153Z,55.73
2022-08-07T12:01:22.651Z,55.96
2022-08-07T12:04:33.408Z,56.04
2022-08-07T12:08:04.098Z,56.27
2022-08-07T12:11:20.837Z,56.44
2022-08-07T12:14:43.499Z,56.54
2022-08-07T12:17:36.769Z,56.61
2022-08-07T12:20:52.064Z,56.81
2022-08-07T12:24:36.768Z,56.84
2022-08-07T12:27:14.957Z,56.93
2022-08-07T12:30:25.703Z,57.08
2022-08-07T12:33:09.284Z,57.22
2022-08-07T12:36:32.668Z,57.24
2022-08-07T12:39:44.074Z,57.36
2022-08-07T12:42:54.924Z,57.52
2022-08-07T12:45:30.636Z,57.57
2022-08-07T12:48:51.869Z,57.79
2022-08-07T12:52:27.020Z,57.91
2022-08-07T12:55:41.450Z,58.04
2022-08-07T12:58:53.281Z,58.00
2022-08-07T13:02:09.753Z,58.22
2022-08-07T13:06:03.453Z,58.26
2022-08-07T13:09:12.561Z,58.48
2022-08-07T13:12:39.314Z,58.47
2022-08-07T13:16:11.058Z,58.63
2022-08-07T13:19:50.813Z,58.84
2022-08-07T13:22:40.802Z,58.89
2022-08-07T13:25:41.773Z,58.94
2022-08-07T13:29:02.861Z,59.17
2022-08-07T13:32:32.581Z,59.21
2022-08-07T13:35:15.760Z,59.24
2022-08-07T13:38:39.696Z,59.33
2022-08-07T13:41:41.707Z,59.39
2022-08-07T13:44:13.716Z,59.56
2022-08-07T13:46:49.250Z,59.64
2022-08-07T13:50:34.238Z,59.68
2022-08-07T13:52:26.546Z,59.85
2022-08-07T13:55:54.317Z,59.90
2022-08-07T13:59:16.210Z,59.93
2022-08-07T14:02:10.892Z,59.98
2022-08-07T14:05:18.419Z,60.05
2022-08-07T14:08:37.239Z,60.25
2022-08-07T14:11:14.577Z,60.19
2022-08-07T14:14:20.879Z,60.17
2022-08-07T14:18:23.733Z,60.18
2022-08-07T14:22:00.995Z,60.33
2022-08-07T14:24:54.566Z,60.34
2022-08-07T14:28:12.426Z,60.33
2022-08-07T14:30:42.215Z,60.36
2022-08-07T14:33:45.306Z,60.33
2022-08-07T14:36:55.959Z,60.29
2022-08-07T14:40:15.849Z,60.31
2022-08-07T14:42:33.681Z,60.31
2022-08-07T14:48:32.595Z,60.11
2022-08-07T14:55:21.576Z,59.75
2022-08-07T14:58:06.044Z,59.56
2022-08-07T15:05:20.417Z,58.84
2022-08-07T15:08:50.328Z,58.59
2022-08-07T15:12:42.174Z,58.27
2022-08-07T15:16:11.085Z,58.14
2022-08-07T15:19:20.965Z,58.05
2022-08-07T15:22:51.530Z,57.73
2022-08-07T15:25:56.051Z,57.48
2022-08-07T15:36:01.599Z,56.79
2022-08-07T15:42:53.976Z,55.88
2022-08-07T15:46:01.596Z,55.29
2022-08-07T15:49:15.543Z,54.57
2022-08-07T15:52:30.473Z,54.22
2022-08-07T15:56:02.823Z,53.67
2022-08-07T15:59:17.472Z,53.22
2022-08-07T16:02:47.866Z,52.45
2022-08-07T16:05:48.422Z,51.48
2022-08-07T16:09:01.578Z,50.64
2022-08-07T16:12:04.897Z,49.87
2022-08-07T16:14:28.649Z,49.09
2022-08-07T16:18:01.697Z,48.59
2022-08-07T16:22:01.662Z,48.08
2022-08-07T16:25:11.237Z,47.16
2022-08-07T16:30:05.549Z,46.47
2022-08-07T16:32:34.940Z,45.71
2022-08-07T16:35:56.790Z,45.06
2022-08-07T16:39:05.047Z,44.42
2022-08-07T16:41:54.430Z,44.15
2022-08-07T16:46:47.583Z,43.64
2022-08-07T16:50:28.021Z,42.84
2022-08-07T16:52:50.748Z,42.25
2022-08-07T16:55:55.082Z,41.99
2022-08-07T16:59:10.001Z,41.45
2022-08-07T17:02:10.213Z,41.30
2022-08-07T17:06:02.284Z,40.71
2022-08-07T17:09:08.848Z,40.19
2022-08-07T17:11:28.275Z,40.32
2022-08-07T17:14:18.959Z,40.10
2022-08-07T17:16:57.367Z,39.75
2022-08-07T17:20:13.848Z,39.40
2022-08-07T17:23:18.039Z,39.42
2022-08-07T17:25:56.845Z,38.82
2022-08-07T17:28:26.324Z,38.73
2022-08-07T17:31:16.508Z,38.37
2022-08-07T17:34:32.831Z,37.65
2022-08-07T17:37:08.985Z,37.75
2022-08-07T17:40:03.120Z,37.50
2022-08-07T17:43:18.069Z,37.41
2022-08-07T17:45:35.290Z,36.70
2022-08-07T17:48:40.812Z,36.67
2022-08-07T17:51:23.025Z,36.18
2022-08-07T17:54:11.464Z,35.46
2022-08-07T17:56:36.270Z,35.11
2022-08-07T17:58:56.780Z,35.01
2022-08-07T18:01:21.442Z,35.15
2022-08-07T18:04:31.180Z,34.96
2022-08-07T18:07:34.076Z,35.32
2022-08-07T18:10:32.645Z,35.12
2022-08-07T18:13:40.649Z,34.82
2022-08-07T18:17:01.062Z,34.42
2022-08-07T18:21:11.870Z,34.22
2022-08-07T18:22:45.752Z,33.95
2022-08-07T18:25:40.491Z,33.35
2022-08-07T18:28:36.006Z,33.32
2022-08-07T18:32:16.007Z,33.34
2022-08-07T18:35:19.606Z,33.33
2022-08-07T18:38:58.641Z,32.98
2022-08-07T18:40:43.822Z,33.07
2022-08-07T18:43:58.073Z,33.00
2022-08-07T18:46:26.982Z,32.70
2022-08-07T18:50:30.814Z,32.58
2022-08-07T18:52:37.361Z,32.39
2022-08-07T18:55:40.617Z,32.11
2022-08-07T18:58:45.227Z,32.00
2022-08-07T19:02:32.432Z,31.85
2022-08-07T19:06:03.445Z,31.54
2022-08-07T19:08:53.393Z,31.46
2022-08-07T19:11:35.725Z,31.39
2022-08-07T19:14:08.139Z,30.87
2022-08-07T19:17:54.339Z,30.68
2022-08-07T19:21:08.985Z,30.51
2022-08-07T19:24:30.749Z,29.98
2022-08-07T19:28:57.981Z,29.56
2022-08-07T19:31:58.496Z,29.64
2022-08-07T19:34:53.193Z,29.66
2022-08-07T19:38:15.959Z,29.95
2022-08-07T19:41:07.470Z,29.64
2022-08-07T19:44:21.848Z,29.38
2022-08-07T19:47:16.217Z,29.76
2022-08-07T19:50:41.212Z,29.21
2022-08-07T19:54:29.853Z,29.21
2022-08-07T19:58:04.126Z,29.08
2022-08-07T20:00:54.323Z,29.09
2022-08-07T20:03:48.273Z,28.99
2022-08-07T20:07:23.782Z,28.99
2022-08-07T20:11:03.892Z,28.79
2022-08-07T20:14:53.609Z,28.85
2022-08-07T20:17:13.714Z,28.90
2022-08-07T20:20:05.713Z,28.72
2022-08-07T20:22:58.502Z,28.92
2022-08-07T20:25:51.121Z,28.38
2022-08-07T20:29:16.963Z,28.46
2022-08-07T20:32:11.285Z,28.48
2022-08-07T20:35:26.211Z,28.32
2022-08-07T20:38:01.480Z,28.24
2022-08-07T20:40:53.094Z,28.30
2022-08-07T20:44:10.340Z,27.90
2022-08-07T20:47:57.004Z,27.94
2022-08-07T20:50:49.451Z,27.94
2022-08-07T20:53:08.290Z,28.06
2022-08-07T20:56:00.357Z,27.94
2022-08-07T20:58:56.635Z,27.66
2022-08-07T21:01:26.603Z,27.24
2022-08-07T21:03:43.325Z,26.94
2022-08-07T21:06:42.405Z,27.03
2022-08-07T21:09:52.677Z,26.99
2022-08-07T21:12:31.419Z,27.11
2022-08-07T21:15:47.805Z,26.94
2022-08-07T21:18:50.528Z,26.70
2022-08-07T21:21:56.692Z,26.64
2022-08-07T21:24:38.826Z,26.71
2022-08-07T21:27:39.971Z,26.52
2022-08-07T21:30:30.159Z,26.35
2022-08-07T21:33:29.293Z,26.35
2022-08-07T21:37:03.169Z,26.40
2022-08-07T21:39:47.691Z,26.23
2022-08-07T21:43:07.025Z,25.88
2022-08-07T21:46:08.909Z,25.48
2022-08-07T21:49:30.461Z,25.51
2022-08-07T21:52:34.532Z,25.63
2022-08-07T21:55:38.700Z,25.32
2022-08-07T21:58:32.799Z,25.32
2022-08-07T22:01:14.033Z,25.26
2022-08-07T22:04:13.487Z,25.11
2022-08-07T22:07:57.855Z,24.68
2022-08-07T22:10:55.901Z,24.63
2022-08-07T22:13:51.298Z,24.50
2022-08-07T22:17:16.499Z,24.28
2022-08-07T22:19:58.564Z,24.10
2022-08-07T22:23:02.674Z,23.83
2022-08-07T22:26:06.137Z,24.17
2022-08-07T22:28:48.321Z,23.96
2022-08-07T22:32:00.143Z,23.82
2022-08-07T22:35:11.752Z,23.89
2022-08-07T22:38:48.267Z,23.40
2022-08-07T22:42:19.431Z,23.48
2022-08-07T22:46:40.527Z,23.43
2022-08-07T22:49:37.882Z,23.03
2022-08-07T22:52:45.908Z,22.93
2022-08-07T22:56:28.700Z,23.19
2022-08-07T22:59:49.716Z,23.02
2022-08-07T23:03:01.725Z,22.52
2022-08-07T23:06:31.611Z,22.34
2022-08-07T23:10:06.080Z,22.13
2022-08-07T23:12:51.782Z,21.83
2022-08-07T23:16:06.280Z,22.24
2022-08-07T23:18:57.213Z,21.91
2022-08-07T23:22:40.814Z,21.31
2022-08-07T23:26:23.491Z,21.59
2022-08-07T23:30:38.749Z,21.68
2022-08-07T23:34:35.434Z,21.32
2022-08-07T23:37:19.643Z,21.35
2022-08-07T23:40:51.844Z,21.23
2022-08-07T23:44:45.400Z,21.38
2022-08-07T23:48:09.508Z,20.96
2022-08-07T23:53:01.774Z,20.47
2022-08-07T23:55:05.026Z,20.41
2022-08-07T23:58:18.727Z,20.43
